createdAt,value
2022-12-28T00:01:35.295Z,100774.47
2022-12-28T00:03:37.087Z,100770.34
2022-12-28T00:05:38.729Z,100777.19
2022-12-28T00:07:40.436Z,100765.06
2022-12-28T00:09:42.173Z,100772.78
2022-12-28T00:11:43.954Z,100770.44
2022-12-28T00:13:46.054Z,100766.09
2022-12-28T00:15:47.783Z,100788.38
2022-12-28T00:17:49.451Z,100756.00
2022-12-28T00:19:51.130Z,100765.44
2022-12-28T00:21:54.171Z,100756.13
2022-12-28T00:23:58.494Z,100766.63
2022-12-28T00:26:08.372Z,100763.28
2022-12-28T00:28:10.032Z,100759.94
2022-12-28T00:30:12.453Z,100774.50
2022-12-28T00:32:14.201Z,100762.50
2022-12-28T00:34:16.098Z,100776.09
2022-12-28T00:36:17.871Z,100767.63
2022-12-28T00:38:19.551Z,100761.81
2022-12-28T00:40:24.165Z,100759.41
2022-12-28T00:42:26.025Z,100741.56
2022-12-28T00:44:27.812Z,100762.19
2022-12-28T00:46:29.549Z,100744.84
2022-12-28T00:48:32.013Z,100738.91
2022-12-28T00:50:35.961Z,100744.31
2022-12-28T00:52:37.909Z,100739.34
2022-12-28T00:54:39.575Z,100752.03
2022-12-28T00:56:44.217Z,100736.63
2022-12-28T00:58:46.775Z,100762.50
2022-12-28T01:00:49.414Z,100759.97
2022-12-28T01:02:51.101Z,100752.25
2022-12-28T01:04:54.885Z,100747.13
2022-12-28T01:06:56.606Z,100743.81
2022-12-28T01:08:58.223Z,100749.75
2022-12-28T01:10:59.838Z,100771.09
2022-12-28T01:13:01.499Z,100750.59
2022-12-28T01:15:08.228Z,100745.63
2022-12-28T01:17:09.907Z,100756.06
2022-12-28T01:19:16.441Z,100748.13
2022-12-28T01:21:21.184Z,100745.41
2022-12-28T01:23:22.859Z,100746.41
2022-12-28T01:25:24.492Z,100743.03
2022-12-28T01:27:26.437Z,100745.72
2022-12-28T01:29:28.198Z,100747.47
2022-12-28T01:31:29.959Z,100748.22
2022-12-28T01:33:31.691Z,100738.56
2022-12-28T01:35:33.373Z,100736.19
2022-12-28T01:37:35.755Z,100748.22
2022-12-28T01:39:37.538Z,100736.34
2022-12-28T01:41:41.365Z,100722.75
2022-12-28T01:44:07.814Z,100736.28
2022-12-28T01:46:22.618Z,100708.06
2022-12-28T01:48:25.567Z,100720.19
2022-12-28T01:50:36.103Z,100727.09
2022-12-28T01:52:41.605Z,100724.63
2022-12-28T01:55:11.631Z,100723.63
2022-12-28T01:57:15.359Z,100724.59
2022-12-28T01:59:22.450Z,100726.22
2022-12-28T02:01:25.295Z,100721.31
2022-12-28T02:03:29.328Z,100716.94
2022-12-28T02:05:36.888Z,100732.41
2022-12-28T02:07:46.224Z,100722.25
2022-12-28T02:10:40.636Z,100721.94
2022-12-28T02:12:15.813Z,100732.13
2022-12-28T02:14:19.597Z,100721.16
2022-12-28T02:16:22.465Z,100717.78
2022-12-28T02:18:25.539Z,100718.72
2022-12-28T02:20:54.678Z,100719.53
2022-12-28T02:23:12.759Z,100708.41
2022-12-28T02:25:35.828Z,100715.31
2022-12-28T02:27:55.707Z,100708.56
2022-12-28T02:30:06.040Z,100720.91
2022-12-28T02:32:18.460Z,100723.06
2022-12-28T02:34:30.335Z,100711.03
2022-12-28T02:36:48.254Z,100710.00
2022-12-28T02:39:16.691Z,100711.13
2022-12-28T02:41:27.411Z,100704.13
2022-12-28T02:43:28.998Z,100705.09
2022-12-28T02:45:50.655Z,100702.41
2022-12-28T02:48:11.739Z,100702.50
2022-12-28T02:50:16.196Z,100699.91
2022-12-28T02:52:39.732Z,100697.28
2022-12-28T02:55:16.003Z,100692.94
2022-12-28T02:57:29.623Z,100702.38
2022-12-28T02:59:40.202Z,100701.56
2022-12-28T03:01:54.479Z,100689.53
2022-12-28T03:04:08.686Z,100684.38
2022-12-28T03:06:44.181Z,100680.19
2022-12-28T03:09:16.154Z,100685.44
2022-12-28T03:11:22.966Z,100682.75
2022-12-28T03:13:44.767Z,100697.97
2022-12-28T03:15:46.942Z,100684.41
2022-12-28T03:18:07.843Z,100686.22
2022-12-28T03:20:35.556Z,100685.34
2022-12-28T03:22:58.813Z,100680.97
2022-12-28T03:25:26.010Z,100681.72
2022-12-28T03:27:49.418Z,100687.13
2022-12-28T03:30:19.051Z,100673.41
2022-12-28T03:32:22.644Z,100678.53
2022-12-28T03:34:24.969Z,100677.78
2022-12-28T03:36:55.053Z,100666.66
2022-12-28T03:39:05.748Z,100672.59
2022-12-28T03:41:15.430Z,100667.38
2022-12-28T03:43:35.129Z,100670.91
2022-12-28T03:45:47.476Z,100664.75
2022-12-28T03:47:52.111Z,100659.66
2022-12-28T03:49:53.929Z,100655.44
2022-12-28T03:51:56.680Z,100652.72
2022-12-28T03:53:58.464Z,100654.59
2022-12-28T03:56:14.408Z,100652.75
2022-12-28T03:58:16.146Z,100640.75
2022-12-28T04:00:18.234Z,100639.91
2022-12-28T04:02:20.035Z,100640.75
2022-12-28T04:04:21.904Z,100633.97
2022-12-28T04:06:23.580Z,100634.03
2022-12-28T04:08:25.930Z,100627.97
2022-12-28T04:10:27.620Z,100627.13
2022-12-28T04:12:29.284Z,100619.41
2022-12-28T04:14:30.957Z,100629.59
2022-12-28T04:16:32.637Z,100620.09
2022-12-28T04:18:34.999Z,100620.91
2022-12-28T04:20:36.767Z,100626.13
2022-12-28T04:22:38.399Z,100625.31
2022-12-28T04:24:40.043Z,100627.66
2022-12-28T04:26:41.744Z,100612.41
2022-12-28T04:28:44.086Z,100620.88
2022-12-28T04:30:45.786Z,100607.19
2022-12-28T04:32:47.467Z,100609.81
2022-12-28T04:34:49.284Z,100603.81
2022-12-28T04:36:51.029Z,100606.31
2022-12-28T04:38:52.760Z,100608.97
2022-12-28T04:40:54.546Z,100601.16
2022-12-28T04:42:56.161Z,100595.09
2022-12-28T04:44:57.976Z,100606.22
2022-12-28T04:46:59.690Z,100592.34
2022-12-28T04:49:01.666Z,100591.63
2022-12-28T04:51:22.246Z,100587.28
2022-12-28T04:53:24.665Z,100599.31
2022-12-28T04:55:31.891Z,100590.72
2022-12-28T04:57:34.887Z,100577.91
2022-12-28T04:59:36.593Z,100582.09
2022-12-28T05:01:38.411Z,100581.16
2022-12-28T05:03:46.947Z,100576.97
2022-12-28T05:05:52.679Z,100563.25
2022-12-28T05:07:55.355Z,100560.66
2022-12-28T05:09:57.045Z,100554.72
2022-12-28T05:11:58.696Z,100571.88
2022-12-28T05:14:00.436Z,100552.13
2022-12-28T05:16:03.780Z,100554.81
2022-12-28T05:18:05.630Z,100556.53
2022-12-28T05:20:07.749Z,100543.50
2022-12-28T05:22:11.997Z,100551.13
2022-12-28T05:24:13.825Z,100543.38
2022-12-28T05:26:19.062Z,100551.25
2022-12-28T05:28:20.772Z,100542.59
2022-12-28T05:30:22.466Z,100533.91
2022-12-28T05:32:24.150Z,100538.25
2022-12-28T05:34:25.845Z,100531.38
2022-12-28T05:36:28.265Z,100528.03
2022-12-28T05:38:30.045Z,100531.44
2022-12-28T05:40:32.265Z,100528.72
2022-12-28T05:42:35.672Z,100527.09
2022-12-28T05:44:37.496Z,100516.88
2022-12-28T05:46:39.271Z,100521.16
2022-12-28T05:48:42.946Z,100523.09
2022-12-28T05:50:44.636Z,100514.38
2022-12-28T05:52:46.566Z,100523.78
2022-12-28T05:54:48.515Z,100507.56
2022-12-28T05:56:52.268Z,100510.91
2022-12-28T05:58:55.207Z,100520.50
2022-12-28T06:01:08.532Z,100509.41
2022-12-28T06:03:10.372Z,100503.44
2022-12-28T06:05:14.243Z,100504.28
2022-12-28T06:07:15.958Z,100510.28
2022-12-28T06:09:17.931Z,100501.50
2022-12-28T06:11:22.866Z,100496.47
2022-12-28T06:13:24.592Z,100490.47
2022-12-28T06:15:26.305Z,100487.94
2022-12-28T06:17:28.051Z,100487.88
2022-12-28T06:19:29.776Z,100481.00
2022-12-28T06:21:32.979Z,100489.78
2022-12-28T06:23:35.099Z,100484.56
2022-12-28T06:25:38.326Z,100485.25
2022-12-28T06:27:40.276Z,100476.69
2022-12-28T06:29:41.986Z,100469.03
2022-12-28T06:31:48.018Z,100462.25
2022-12-28T06:33:56.386Z,100465.59
2022-12-28T06:35:58.142Z,100472.38
2022-12-28T06:38:00.007Z,100456.81
2022-12-28T06:40:01.841Z,100474.00
2022-12-28T06:42:03.625Z,100444.03
2022-12-28T06:44:08.678Z,100450.88
2022-12-28T06:46:11.910Z,100455.91
2022-12-28T06:48:13.595Z,100458.63
2022-12-28T06:50:15.517Z,100454.31
2022-12-28T06:52:17.331Z,100450.66
2022-12-28T06:54:19.020Z,100451.63
2022-12-28T06:56:26.621Z,100443.09
2022-12-28T06:58:29.786Z,100444.03
2022-12-28T07:00:31.590Z,100442.34
2022-12-28T07:02:33.460Z,100432.88
2022-12-28T07:04:35.292Z,100427.75
2022-12-28T07:06:40.671Z,100425.13
2022-12-28T07:08:42.802Z,100430.41
2022-12-28T07:10:44.490Z,100419.91
2022-12-28T07:12:46.144Z,100427.59
2022-12-28T07:14:47.933Z,100448.06
2022-12-28T07:16:50.134Z,100410.25
2022-12-28T07:18:52.669Z,100420.63
2022-12-28T07:21:05.727Z,100425.72
2022-12-28T07:23:07.411Z,100418.97
2022-12-28T07:25:09.568Z,100405.22
2022-12-28T07:27:11.439Z,100407.72
2022-12-28T07:29:13.082Z,100407.53
2022-12-28T07:31:17.271Z,100404.09
2022-12-28T07:33:18.969Z,100405.03
2022-12-28T07:35:20.640Z,100415.34
2022-12-28T07:37:22.394Z,100404.97
2022-12-28T07:39:24.203Z,100391.28
2022-12-28T07:41:29.059Z,100405.94
2022-12-28T07:43:31.412Z,100404.84
2022-12-28T07:45:33.511Z,100412.56
2022-12-28T07:47:35.374Z,100409.97
2022-12-28T07:49:37.316Z,100419.28
2022-12-28T07:51:39.900Z,100402.81
2022-12-28T07:53:43.465Z,100416.56
2022-12-28T07:55:45.325Z,100454.38
2022-12-28T07:57:47.079Z,100438.00
2022-12-28T07:59:48.843Z,100400.25
2022-12-28T08:01:52.153Z,100421.47
2022-12-28T08:03:56.116Z,100399.31
2022-12-28T08:06:04.101Z,100402.84
2022-12-28T08:08:06.582Z,100403.53
2022-12-28T08:10:09.065Z,100385.59
2022-12-28T08:12:10.902Z,100396.75
2022-12-28T08:14:13.150Z,100395.84
2022-12-28T08:16:18.511Z,100388.28
2022-12-28T08:18:20.483Z,100384.84
2022-12-28T08:20:23.132Z,100386.66
2022-12-28T08:22:24.999Z,100386.53
2022-12-28T08:24:26.951Z,100388.31
2022-12-28T08:26:38.750Z,100394.13
2022-12-28T08:28:42.099Z,100380.50
2022-12-28T08:30:44.061Z,100383.84
2022-12-28T08:32:45.953Z,100372.84
2022-12-28T08:34:48.009Z,100371.94
2022-12-28T08:36:50.212Z,100366.78
2022-12-28T08:38:52.362Z,100372.66
2022-12-28T08:40:57.668Z,100374.25
2022-12-28T08:43:00.024Z,100375.97
2022-12-28T08:45:01.948Z,100366.50
2022-12-28T08:47:03.939Z,100363.19
2022-12-28T08:49:06.015Z,100355.38
2022-12-28T08:51:12.170Z,100360.59
2022-12-28T08:53:14.116Z,100360.56
2022-12-28T08:55:16.341Z,100348.50
2022-12-28T08:57:18.123Z,100344.91
2022-12-28T08:59:20.101Z,100346.03
2022-12-28T09:01:24.791Z,100340.94
2022-12-28T09:03:26.550Z,100349.19
2022-12-28T09:05:28.339Z,100359.56
2022-12-28T09:07:30.019Z,100341.41
2022-12-28T09:09:31.743Z,100351.06
2022-12-28T09:11:35.302Z,100315.84
2022-12-28T09:13:37.889Z,100317.69
2022-12-28T09:15:39.555Z,100315.75
2022-12-28T09:17:48.964Z,100322.88
2022-12-28T09:19:50.723Z,100317.78
2022-12-28T09:21:53.446Z,100322.03
2022-12-28T09:23:56.217Z,100308.22
2022-12-28T09:26:09.165Z,100318.53
2022-12-28T09:28:10.891Z,100310.91
2022-12-28T09:30:12.919Z,100307.25
2022-12-28T09:32:14.701Z,100317.53
2022-12-28T09:34:35.581Z,100299.50
2022-12-28T09:36:41.104Z,100291.06
2022-12-28T09:38:43.806Z,100292.81
2022-12-28T09:40:45.579Z,100288.44
2022-12-28T09:42:47.740Z,100288.31
2022-12-28T09:44:56.239Z,100296.97
2022-12-28T09:47:25.046Z,100296.16
2022-12-28T09:49:40.276Z,100285.03
2022-12-28T09:51:51.485Z,100285.91
2022-12-28T09:53:53.240Z,100273.00
2022-12-28T09:55:58.888Z,100280.72
2022-12-28T09:58:02.467Z,100285.91
2022-12-28T10:00:06.819Z,100284.84
2022-12-28T10:02:23.608Z,100277.88
2022-12-28T10:04:25.467Z,100266.75
2022-12-28T10:06:29.946Z,100251.28
2022-12-28T10:08:34.864Z,100245.38
2022-12-28T10:10:36.616Z,100248.00
2022-12-28T10:12:38.315Z,100234.28
2022-12-28T10:14:40.093Z,100238.56
2022-12-28T10:16:45.587Z,100230.13
2022-12-28T10:18:50.896Z,100239.63
2022-12-28T10:20:53.516Z,100260.94
2022-12-28T10:22:57.366Z,100251.22
2022-12-28T10:24:59.032Z,100246.09
2022-12-28T10:27:05.200Z,100235.66
2022-12-28T10:29:16.827Z,100212.72
2022-12-28T10:31:39.670Z,100211.88
2022-12-28T10:33:49.529Z,100208.53
2022-12-28T10:35:54.688Z,100203.19
2022-12-28T10:38:33.893Z,100191.34
2022-12-28T10:40:39.634Z,100186.19
2022-12-28T10:42:44.134Z,100182.59
2022-12-28T10:44:50.037Z,100184.97
2022-12-28T10:47:05.327Z,100167.69
2022-12-28T10:49:15.798Z,100161.03
2022-12-28T10:51:23.939Z,100160.19
2022-12-28T10:53:44.436Z,100149.16
2022-12-28T10:55:46.497Z,100156.00
2022-12-28T10:58:27.452Z,100151.69
2022-12-28T11:00:23.050Z,100183.16
2022-12-28T11:02:25.038Z,100148.25
2022-12-28T11:04:26.955Z,100136.28
2022-12-28T11:06:35.913Z,100130.38
2022-12-28T11:08:39.691Z,100118.38
2022-12-28T11:10:41.564Z,100107.25
2022-12-28T11:12:46.455Z,100108.97
2022-12-28T11:14:48.582Z,100128.59
2022-12-28T11:16:50.367Z,100083.25
2022-12-28T11:18:52.473Z,100093.38
2022-12-28T11:20:54.747Z,100075.53
2022-12-28T11:22:56.535Z,100056.56
2022-12-28T11:25:01.019Z,100060.00
2022-12-28T11:27:03.898Z,100059.97
2022-12-28T11:29:05.654Z,100046.28
2022-12-28T11:31:09.337Z,100046.16
2022-12-28T11:33:40.786Z,100058.91
2022-12-28T11:35:44.573Z,100026.22
2022-12-28T11:37:54.019Z,100022.91
2022-12-28T11:39:55.886Z,100005.84
2022-12-28T11:44:30.378Z,100001.59
2022-12-28T11:46:37.197Z,100010.19
2022-12-28T11:48:41.979Z,99997.19
2022-12-28T11:50:51.466Z,99997.38
2022-12-28T11:52:53.136Z,99980.06
2022-12-28T11:55:38.092Z,99974.06
2022-12-28T11:57:53.156Z,99951.00
2022-12-28T12:00:22.307Z,99944.78
2022-12-28T12:02:27.647Z,99948.34
2022-12-28T12:04:36.667Z,99929.19
2022-12-28T12:06:44.913Z,99946.31
2022-12-28T12:08:49.896Z,99931.81
2022-12-28T12:11:25.843Z,99914.53
2022-12-28T12:13:27.438Z,99923.22
2022-12-28T12:15:39.203Z,99898.34
2022-12-28T12:18:00.854Z,99890.63
2022-12-28T12:20:16.647Z,99883.78
2022-12-28T12:22:30.078Z,99875.34
2022-12-28T12:24:43.425Z,99872.66
2022-12-28T12:26:52.846Z,99890.72
2022-12-28T12:29:02.530Z,99870.03
2022-12-28T12:31:11.731Z,99843.53
2022-12-28T12:33:22.475Z,99842.75
2022-12-28T12:35:28.081Z,99827.34
2022-12-28T12:37:32.454Z,99828.22
2022-12-28T12:39:51.246Z,99818.88
2022-12-28T12:42:23.723Z,99801.66
2022-12-28T12:44:45.852Z,99793.00
2022-12-28T12:47:09.013Z,99801.59
2022-12-28T12:49:29.314Z,99800.50
2022-12-28T12:51:45.611Z,99778.53
2022-12-28T12:54:10.554Z,99791.28
2022-12-28T12:56:38.681Z,99769.03
2022-12-28T12:58:46.215Z,99751.16
2022-12-28T13:01:27.064Z,99731.28
2022-12-28T13:03:33.387Z,99753.53
2022-12-28T13:05:39.305Z,99721.84
2022-12-28T13:07:56.113Z,99700.53
2022-12-28T13:10:01.919Z,99698.81
2022-12-28T13:12:03.953Z,99692.81
2022-12-28T13:14:06.800Z,99664.53
2022-12-28T13:16:12.284Z,99636.41
2022-12-28T13:18:44.444Z,99668.88
2022-12-28T13:20:41.817Z,99669.75
2022-12-28T13:22:46.607Z,99650.13
2022-12-28T13:24:48.331Z,99633.03
2022-12-28T13:26:50.531Z,99642.47
2022-12-28T13:29:00.277Z,99622.72
2022-12-28T13:31:06.796Z,99628.69
2022-12-28T13:33:21.277Z,99610.72
2022-12-28T13:35:32.873Z,99624.44
2022-12-28T13:37:34.527Z,99611.63
2022-12-28T13:39:41.814Z,99608.13
2022-12-28T13:41:52.765Z,99596.19
2022-12-28T13:44:14.711Z,99610.78
2022-12-28T13:46:18.678Z,99651.13
2022-12-28T13:48:21.917Z,99598.84
2022-12-28T13:50:28.005Z,99591.13
2022-12-28T13:52:39.807Z,99575.72
2022-12-28T13:54:47.148Z,99582.53
2022-12-28T13:56:48.853Z,99580.78
2022-12-28T13:58:54.094Z,99563.69
2022-12-28T14:00:59.000Z,99565.34
2022-12-28T14:03:00.909Z,99551.66
2022-12-28T14:05:02.855Z,99575.66
2022-12-28T14:07:12.101Z,99559.41
2022-12-28T14:09:15.889Z,99538.84
2022-12-28T14:11:18.268Z,99538.00
2022-12-28T14:13:21.872Z,99538.84
2022-12-28T14:15:24.114Z,99528.56
2022-12-28T14:17:26.780Z,99524.28
2022-12-28T14:19:29.291Z,99532.03
2022-12-28T14:21:37.142Z,99538.00
2022-12-28T14:23:40.253Z,99519.16
2022-12-28T14:25:43.019Z,99500.31
2022-12-28T14:28:00.720Z,99517.44
2022-12-28T14:30:03.675Z,99501.16
2022-12-28T14:32:13.930Z,99520.03
2022-12-28T14:34:24.745Z,99506.31
2022-12-28T14:36:39.341Z,99487.47
2022-12-28T14:38:48.627Z,99480.59
2022-12-28T14:40:56.263Z,99491.78
2022-12-28T14:43:06.243Z,99478.94
2022-12-28T14:46:05.872Z,99463.47
2022-12-28T14:48:32.865Z,99484.94
2022-12-28T14:50:34.593Z,99469.50
2022-12-28T14:52:47.909Z,99473.78
2022-12-28T14:54:53.832Z,99464.34
2022-12-28T14:57:01.327Z,99450.63
2022-12-28T14:59:03.369Z,99459.19
2022-12-28T15:01:09.437Z,99447.16
2022-12-28T15:03:20.976Z,99469.50
2022-12-28T15:05:41.566Z,99481.50
2022-12-28T15:07:47.874Z,99470.34
2022-12-28T15:09:49.530Z,99485.75
2022-12-28T15:12:09.644Z,99468.63
2022-12-28T15:14:12.103Z,99454.88
2022-12-28T15:16:17.965Z,99454.03
2022-12-28T15:18:19.796Z,99457.47
2022-12-28T15:20:21.645Z,99468.63
2022-12-28T15:22:23.284Z,99452.31
2022-12-28T15:24:31.720Z,99467.75
2022-12-28T15:26:35.379Z,99462.63
2022-12-28T15:28:37.316Z,99458.34
2022-12-28T15:30:43.401Z,99446.28
2022-12-28T15:32:45.380Z,99467.75
2022-12-28T15:34:47.082Z,99460.88
2022-12-28T15:36:48.795Z,99444.59
2022-12-28T15:38:50.827Z,99444.56
2022-12-28T15:40:55.242Z,99447.13
2022-12-28T15:42:57.008Z,99460.03
2022-12-28T15:44:58.690Z,99455.72
2022-12-28T15:47:00.479Z,99464.31
2022-12-28T15:49:03.047Z,99444.56
2022-12-28T15:51:04.809Z,99435.97
2022-12-28T15:53:06.447Z,99461.72
2022-12-28T15:55:08.480Z,99437.69
2022-12-28T15:57:12.843Z,99442.84
2022-12-28T15:59:14.808Z,99426.53
2022-12-28T16:01:16.600Z,99409.34
2022-12-28T16:03:18.491Z,99418.78
2022-12-28T16:05:20.204Z,99418.78
2022-12-28T16:07:21.970Z,99420.44
2022-12-28T16:09:23.636Z,99433.34
2022-12-28T16:11:26.921Z,99412.72
2022-12-28T16:13:28.650Z,99417.03
2022-12-28T16:15:30.364Z,99433.31
2022-12-28T16:17:32.142Z,99423.88
2022-12-28T16:19:33.778Z,99424.69
2022-12-28T16:21:36.963Z,99429.03
2022-12-28T16:23:43.848Z,99430.69
2022-12-28T16:25:51.775Z,99412.69
2022-12-28T16:27:54.281Z,99422.09
2022-12-28T16:29:58.889Z,99449.56
2022-12-28T16:32:01.619Z,99432.41
2022-12-28T16:34:10.473Z,99426.31
2022-12-28T16:36:12.851Z,99432.34
2022-12-28T16:38:20.211Z,99434.03
2022-12-28T16:40:21.910Z,99444.38
2022-12-28T16:42:23.583Z,99421.19
2022-12-28T16:44:27.403Z,99431.47
2022-12-28T16:46:29.772Z,99432.41
2022-12-28T16:48:31.800Z,99431.47
2022-12-28T16:50:33.975Z,99456.41
2022-12-28T16:52:35.692Z,99434.88
2022-12-28T16:54:37.460Z,99436.66
2022-12-28T16:56:39.109Z,99440.00
2022-12-28T16:58:44.957Z,99442.66
2022-12-28T17:00:49.179Z,99455.56
2022-12-28T17:02:51.196Z,99434.91
2022-12-28T17:04:52.960Z,99448.66
2022-12-28T17:06:54.675Z,99444.31
2022-12-28T17:08:56.746Z,99452.03
2022-12-28T17:10:58.566Z,99444.34
2022-12-28T17:13:00.295Z,99437.50
2022-12-28T17:15:05.240Z,99437.47
2022-12-28T17:17:07.416Z,99448.69
2022-12-28T17:19:09.317Z,99452.09
2022-12-28T17:21:11.004Z,99456.38
2022-12-28T17:23:13.355Z,99460.75
2022-12-28T17:25:15.084Z,99463.31
2022-12-28T17:27:19.335Z,99464.19
2022-12-28T17:29:21.517Z,99440.97
2022-12-28T17:31:24.111Z,99429.78
2022-12-28T17:33:25.879Z,99456.44
2022-12-28T17:35:27.656Z,99447.91
2022-12-28T17:37:29.336Z,99443.59
2022-12-28T17:39:35.995Z,99452.16
2022-12-28T17:41:41.350Z,99447.03
2022-12-28T17:43:48.061Z,99441.91
2022-12-28T17:45:49.820Z,99444.41
2022-12-28T17:47:51.809Z,99440.09
2022-12-28T17:49:53.463Z,99429.03
2022-12-28T17:51:55.143Z,99444.47
2022-12-28T17:53:57.573Z,99456.50
2022-12-28T17:56:07.586Z,99449.59
2022-12-28T17:58:09.249Z,99453.97
2022-12-28T18:00:11.534Z,99435.94
2022-12-28T18:02:13.560Z,99435.03
2022-12-28T18:04:15.516Z,99448.81
2022-12-28T18:06:17.615Z,99433.31
2022-12-28T18:08:20.480Z,99415.28
2022-12-28T18:10:22.682Z,99426.53
2022-12-28T18:12:24.336Z,99424.81
2022-12-28T18:14:27.228Z,99417.94
2022-12-28T18:16:28.921Z,99415.34
2022-12-28T18:18:31.380Z,99394.78
2022-12-28T18:20:33.497Z,99419.72
2022-12-28T18:22:35.258Z,99418.81
2022-12-28T18:24:36.994Z,99420.56
2022-12-28T18:26:39.253Z,99446.34
2022-12-28T18:28:40.895Z,99446.31
2022-12-28T18:30:42.665Z,99425.72
2022-12-28T18:32:44.482Z,99422.31
2022-12-28T18:34:46.202Z,99408.56
2022-12-28T18:36:47.935Z,99404.25
2022-12-28T18:38:49.738Z,99389.66
2022-12-28T18:40:53.336Z,99389.63
2022-12-28T18:42:54.999Z,99382.75
2022-12-28T18:44:56.745Z,99390.47
2022-12-28T18:46:58.462Z,99390.47
2022-12-28T18:49:00.706Z,99399.91
2022-12-28T18:51:14.148Z,99387.03
2022-12-28T18:53:15.757Z,99382.72
2022-12-28T18:55:18.021Z,99391.31
2022-12-28T18:57:19.737Z,99388.75
2022-12-28T18:59:22.128Z,99405.91
2022-12-28T19:03:53.843Z,99376.69
2022-12-28T19:06:07.476Z,99387.03
2022-12-28T19:08:09.129Z,99382.72
2022-12-28T19:10:14.067Z,99395.56
2022-12-28T19:12:15.834Z,99428.19
2022-12-28T19:14:17.529Z,99406.75
2022-12-28T19:16:25.694Z,99410.13
2022-12-28T19:18:32.308Z,99420.44
2022-12-28T19:20:34.021Z,99413.56
2022-12-28T19:22:35.927Z,99411.84
2022-12-28T19:24:37.677Z,99439.34
2022-12-28T19:26:39.551Z,99406.72
2022-12-28T19:28:41.197Z,99420.47
2022-12-28T19:30:42.858Z,99419.66
2022-12-28T19:32:44.529Z,99422.22
2022-12-28T19:34:46.348Z,99415.34
2022-12-28T19:36:48.010Z,99407.66
2022-12-28T19:38:49.726Z,99452.34
2022-12-28T19:40:54.218Z,99411.16
2022-12-28T19:42:55.860Z,99412.00
2022-12-28T19:44:57.564Z,99412.03
2022-12-28T19:47:00.428Z,99412.00
2022-12-28T19:49:04.208Z,99401.72
2022-12-28T19:51:06.025Z,99418.00
2022-12-28T19:53:07.738Z,99414.59
2022-12-28T19:55:10.014Z,99406.84
2022-12-28T19:57:11.769Z,99406.84
2022-12-28T19:59:13.516Z,99399.16
2022-12-28T20:01:18.711Z,99401.75
2022-12-28T20:03:20.959Z,99400.00
2022-12-28T20:05:22.724Z,99397.44
2022-12-28T20:07:24.453Z,99407.75
2022-12-28T20:09:26.077Z,99406.91
2022-12-28T20:11:29.233Z,99407.75
2022-12-28T20:13:31.962Z,99411.19
2022-12-28T20:15:33.697Z,99401.72
2022-12-28T20:17:35.627Z,99417.16
2022-12-28T20:19:40.502Z,99403.47
2022-12-28T20:21:42.202Z,99394.00
2022-12-28T20:23:43.990Z,99380.31
2022-12-28T20:25:53.437Z,99403.47
2022-12-28T20:27:58.081Z,99400.03
2022-12-28T20:29:59.740Z,99398.31
2022-12-28T20:32:01.527Z,99401.75
2022-12-28T20:34:03.340Z,99440.34
2022-12-28T20:36:07.817Z,99391.47
2022-12-28T20:38:10.279Z,99391.47
2022-12-28T20:40:12.119Z,99400.91
2022-12-28T20:42:33.332Z,99414.63
2022-12-28T20:44:35.072Z,99387.16
2022-12-28T20:46:37.181Z,99380.31
2022-12-28T20:48:38.989Z,99373.44
2022-12-28T20:50:40.684Z,99380.31
2022-12-28T20:52:42.337Z,99369.16
2022-12-28T20:54:44.149Z,99356.28
2022-12-28T20:56:52.380Z,99359.72
2022-12-28T20:58:56.519Z,99349.41
2022-12-28T21:01:06.091Z,99345.97
2022-12-28T21:03:07.773Z,99351.09
2022-12-28T21:05:09.885Z,99344.25
2022-12-28T21:07:11.883Z,99351.97
2022-12-28T21:09:13.584Z,99345.97
2022-12-28T21:11:15.299Z,99347.66
2022-12-28T21:13:17.112Z,99355.41
2022-12-28T21:15:18.788Z,99339.09
2022-12-28T21:17:20.536Z,99349.38
2022-12-28T21:19:22.670Z,99347.66
2022-12-28T21:21:24.333Z,99357.06
2022-12-28T21:23:30.395Z,99361.34
2022-12-28T21:25:35.680Z,99354.47
2022-12-28T21:27:37.428Z,99347.63
2022-12-28T21:29:39.100Z,99333.00
2022-12-28T21:31:40.885Z,99341.63
2022-12-28T21:33:42.768Z,99357.94
2022-12-28T21:35:44.507Z,99350.25
2022-12-28T21:37:47.394Z,99388.84
2022-12-28T21:39:49.110Z,99360.53
2022-12-28T21:41:50.873Z,99356.22
2022-12-28T21:43:52.532Z,99358.84
2022-12-28T21:46:05.067Z,99351.09
2022-12-28T21:48:06.751Z,99344.22
2022-12-28T21:50:10.370Z,99339.94
2022-12-28T21:52:12.124Z,99338.25
2022-12-28T21:54:16.864Z,99349.38
2022-12-28T21:56:18.489Z,99342.59
2022-12-28T21:58:20.128Z,99335.72
2022-12-28T22:00:40.716Z,99352.00
2022-12-28T22:03:01.312Z,99325.38
2022-12-28T22:05:22.678Z,99330.53
2022-12-28T22:07:25.258Z,99335.69
2022-12-28T22:09:45.756Z,99322.00
2022-12-28T22:12:06.216Z,99325.41
2022-12-28T22:14:08.527Z,99337.44
2022-12-28T22:16:10.201Z,99326.28
2022-12-28T22:18:52.614Z,99330.56
2022-12-28T22:20:47.329Z,99317.72
2022-12-28T22:22:49.018Z,99324.59
2022-12-28T22:24:50.835Z,99335.72
2022-12-28T22:26:52.549Z,99317.72
2022-12-28T22:28:54.285Z,99315.16
2022-12-28T22:30:56.011Z,99328.03
2022-12-28T22:32:57.857Z,99325.44
2022-12-28T22:34:59.564Z,99321.16
2022-12-28T22:37:01.269Z,99312.59
2022-12-28T22:39:02.961Z,99322.00
2022-12-28T22:41:04.818Z,99328.03
2022-12-28T22:43:06.519Z,99325.47
2022-12-28T22:45:11.015Z,99320.31
2022-12-28T22:47:13.758Z,99295.44
2022-12-28T22:49:16.217Z,99299.75
2022-12-28T22:51:18.288Z,99307.47
2022-12-28T22:53:19.965Z,99299.75
2022-12-28T22:55:21.630Z,99298.91
2022-12-28T22:57:23.376Z,99298.03
2022-12-28T22:59:25.093Z,99304.88
2022-12-28T23:01:26.994Z,99286.91
2022-12-28T23:03:28.851Z,99308.31
2022-12-28T23:05:30.528Z,99296.34
2022-12-28T23:07:32.295Z,99329.75
2022-12-28T23:09:34.049Z,99304.91
2022-12-28T23:11:41.801Z,99324.63
2022-12-28T23:13:43.437Z,99292.06
2022-12-28T23:15:45.088Z,99299.75
2022-12-28T23:17:50.383Z,99287.75
2022-12-28T23:20:11.167Z,99282.63
2022-12-28T23:22:36.829Z,99298.03
2022-12-28T23:24:57.345Z,99279.19
2022-12-28T23:27:18.869Z,99292.91
2022-12-28T23:29:24.284Z,99297.19
2022-12-28T23:31:29.022Z,99321.19
2022-12-28T23:33:31.494Z,99321.19
2022-12-28T23:35:33.306Z,99286.03
2022-12-28T23:37:37.101Z,99279.19
2022-12-28T23:39:38.749Z,99276.63
2022-12-28T23:41:49.301Z,99275.75
2022-12-28T23:43:50.969Z,99273.19
2022-12-28T23:45:52.680Z,99269.75
2022-12-28T23:47:54.457Z,99282.59
2022-12-28T23:49:56.413Z,99299.75
2022-12-28T23:51:58.070Z,99286.03
2022-12-28T23:53:59.768Z,99296.31
2022-12-28T23:56:01.427Z,99298.03
2022-12-28T23:58:03.392Z,99298.88
